createdAt,value
2023-01-28T00:00:53.815Z,6.28
2023-01-28T00:06:23.033Z,9.23
2023-01-28T00:11:45.378Z,7.03
2023-01-28T00:17:07.699Z,11.13
2023-01-28T00:22:29.928Z,10.60
2023-01-28T00:27:52.164Z,12.30
2023-01-28T00:33:14.444Z,12.25
2023-01-28T00:38:37.344Z,13.68
2023-01-28T00:44:00.659Z,9.60
2023-01-28T00:49:22.932Z,9.83
2023-01-28T00:54:45.331Z,10.80
2023-01-28T01:00:07.608Z,12.65
2023-01-28T01:05:30.160Z,12.65
2023-01-28T01:10:53.080Z,11.43
2023-01-28T01:16:28.007Z,9.10
2023-01-28T01:21:51.107Z,9.85
2023-01-28T01:27:13.539Z,8.53
2023-01-28T01:32:36.916Z,8.90
2023-01-28T01:38:00.044Z,9.63
2023-01-28T01:43:30.572Z,9.95
2023-01-28T01:48:55.085Z,9.88
2023-01-28T01:54:18.433Z,7.60
2023-01-28T01:59:43.817Z,10.38
2023-01-28T02:05:06.580Z,10.30
2023-01-28T02:10:30.027Z,9.65
2023-01-28T02:15:52.973Z,6.72
2023-01-28T02:21:45.349Z,7.53
2023-01-28T02:27:43.027Z,6.62
2023-01-28T02:33:10.661Z,7.25
2023-01-28T02:38:40.092Z,6.70
2023-01-28T02:44:04.466Z,8.17
2023-01-28T02:49:37.319Z,7.90
2023-01-28T02:55:04.422Z,7.50
2023-01-28T03:00:34.183Z,6.22
2023-01-28T03:06:05.758Z,6.05
2023-01-28T03:11:45.698Z,6.40
2023-01-28T03:17:29.811Z,6.35
2023-01-28T03:23:13.765Z,6.70
2023-01-28T03:28:56.316Z,6.87
2023-01-28T03:34:39.668Z,5.50
2023-01-28T03:40:02.889Z,5.65
2023-01-28T03:45:25.875Z,4.67
2023-01-28T03:50:49.315Z,4.55
2023-01-28T03:56:14.975Z,4.28
2023-01-28T04:01:37.887Z,4.97
2023-01-28T04:07:00.703Z,4.65
2023-01-28T04:12:23.863Z,4.65
2023-01-28T04:17:46.071Z,5.78
2023-01-28T04:23:12.178Z,3.15
2023-01-28T04:28:34.847Z,3.98
2023-01-28T04:33:57.162Z,6.25
2023-01-28T04:39:19.445Z,3.72
2023-01-28T04:44:41.761Z,4.05
2023-01-28T04:50:04.603Z,5.20
2023-01-28T04:55:27.652Z,3.83
2023-01-28T05:00:50.046Z,5.20
2023-01-28T05:06:12.844Z,4.35
2023-01-28T05:11:38.725Z,8.30
2023-01-28T05:17:00.281Z,4.22
2023-01-28T05:22:23.201Z,5.78
2023-01-28T05:27:47.036Z,7.05
2023-01-28T05:33:11.193Z,5.03
2023-01-28T05:38:33.389Z,5.53
2023-01-28T05:43:56.512Z,4.40
2023-01-28T05:49:19.753Z,6.58
2023-01-28T05:54:42.608Z,6.28
2023-01-28T06:00:06.033Z,5.25
2023-01-28T06:05:28.882Z,4.95
2023-01-28T06:10:51.823Z,6.90
2023-01-28T06:16:15.063Z,4.97
2023-01-28T06:21:37.969Z,4.87
2023-01-28T06:27:00.620Z,5.08
2023-01-28T06:32:23.182Z,5.92
2023-01-28T06:37:45.780Z,6.95
2023-01-28T06:43:08.211Z,5.62
2023-01-28T06:48:30.955Z,6.75
2023-01-28T06:53:53.226Z,4.60
2023-01-28T06:59:15.429Z,4.33
2023-01-28T07:04:38.301Z,5.58
2023-01-28T07:10:01.001Z,5.85
2023-01-28T07:15:24.242Z,4.00
2023-01-28T07:20:46.653Z,5.00
2023-01-28T07:26:10.926Z,5.50
2023-01-28T07:31:33.882Z,3.55
2023-01-28T07:36:57.515Z,5.97
2023-01-28T07:42:20.485Z,4.20
2023-01-28T07:47:42.888Z,5.10
2023-01-28T07:53:05.642Z,7.25
2023-01-28T07:58:30.156Z,6.50
2023-01-28T08:03:52.472Z,6.17
2023-01-28T08:09:14.700Z,5.20
2023-01-28T08:14:37.063Z,5.92
2023-01-28T08:19:59.875Z,8.00
2023-01-28T08:25:22.333Z,5.25
2023-01-28T08:30:45.340Z,7.28
2023-01-28T08:36:09.401Z,6.55
2023-01-28T08:41:31.844Z,6.33
2023-01-28T08:46:54.113Z,3.12
2023-01-28T08:52:16.413Z,2.75
2023-01-28T08:57:38.669Z,5.62
2023-01-28T09:03:05.586Z,2.87
2023-01-28T09:08:28.593Z,3.77
2023-01-28T09:13:50.824Z,4.03
2023-01-28T09:19:15.003Z,3.87
2023-01-28T09:24:39.068Z,3.15
2023-01-28T09:30:01.829Z,3.12
2023-01-28T09:35:24.519Z,3.35
2023-01-28T09:40:52.876Z,3.42
2023-01-28T09:46:20.197Z,2.62
2023-01-28T09:52:01.361Z,4.12
2023-01-28T09:57:27.767Z,2.72
2023-01-28T10:03:09.758Z,2.80
2023-01-28T10:15:05.969Z,2.30
2023-01-28T10:25:59.720Z,2.47
2023-01-28T10:31:23.645Z,2.27
2023-01-28T10:36:47.239Z,2.23
2023-01-28T10:42:12.631Z,2.90
2023-01-28T10:47:48.363Z,3.23
2023-01-28T10:53:19.908Z,2.83
2023-01-28T10:58:58.026Z,2.63
2023-01-28T11:04:23.610Z,4.03
2023-01-28T11:09:55.799Z,3.20
2023-01-28T11:15:21.517Z,3.03
2023-01-28T11:20:48.111Z,3.33
2023-01-28T11:26:18.404Z,4.50
2023-01-28T11:31:43.942Z,3.42
2023-01-28T11:37:29.439Z,2.27
2023-01-28T11:42:52.024Z,3.63
2023-01-28T11:48:36.146Z,4.67
2023-01-28T11:54:03.303Z,4.53
2023-01-28T11:59:49.986Z,3.70
2023-01-28T12:05:45.863Z,5.35
2023-01-28T12:11:29.330Z,2.60
2023-01-28T12:16:59.627Z,3.23
2023-01-28T12:22:41.949Z,3.42
2023-01-28T12:28:46.663Z,4.50
2023-01-28T12:40:31.393Z,10.53
2023-01-28T12:46:04.226Z,2.93
2023-01-28T12:51:37.504Z,2.80
2023-01-28T12:57:07.404Z,3.33
2023-01-28T13:02:40.723Z,5.43
2023-01-28T13:08:17.473Z,2.43
2023-01-28T13:13:59.377Z,1.77
2023-01-28T13:19:45.008Z,2.90
2023-01-28T13:25:27.992Z,3.33
2023-01-28T13:30:56.102Z,4.00
2023-01-28T13:36:28.925Z,16.23
2023-01-28T13:42:05.390Z,7.75
2023-01-28T13:47:40.970Z,4.33
2023-01-28T13:53:08.446Z,7.08
2023-01-28T13:59:00.150Z,6.80
2023-01-28T14:04:46.586Z,6.80
2023-01-28T14:10:35.827Z,8.48
2023-01-28T14:16:28.048Z,6.20
2023-01-28T14:21:52.233Z,13.23
2023-01-28T14:27:34.344Z,6.50
2023-01-28T14:33:03.161Z,6.43
2023-01-28T14:38:28.543Z,6.10
2023-01-28T14:43:51.413Z,12.37
2023-01-28T14:55:37.678Z,7.30
2023-01-28T15:01:09.441Z,5.58
2023-01-28T15:06:38.624Z,7.73
2023-01-28T15:12:13.461Z,22.20
2023-01-28T15:17:46.926Z,13.10
2023-01-28T15:23:13.448Z,19.70
2023-01-28T15:28:45.846Z,7.20
2023-01-28T15:34:32.718Z,10.53
2023-01-28T15:39:55.784Z,10.55
2023-01-28T15:45:26.409Z,13.03
2023-01-28T15:50:49.549Z,16.17
2023-01-28T15:56:21.660Z,19.27
2023-01-28T16:01:44.052Z,15.77
2023-01-28T16:07:11.525Z,11.48
2023-01-28T16:12:35.993Z,19.33
2023-01-28T16:18:06.151Z,12.28
2023-01-28T16:23:39.494Z,16.40
2023-01-28T16:29:01.344Z,11.48
2023-01-28T16:34:25.026Z,15.93
2023-01-28T16:39:47.489Z,15.72
2023-01-28T16:45:10.091Z,18.03
2023-01-28T16:50:33.905Z,17.63
2023-01-28T16:55:56.502Z,12.33
2023-01-28T17:01:18.873Z,15.13
2023-01-28T17:06:43.756Z,13.98
2023-01-28T17:12:06.633Z,16.93
2023-01-28T17:17:28.844Z,22.02
2023-01-28T17:22:51.072Z,20.05
2023-01-28T17:28:14.850Z,29.63
2023-01-28T17:33:37.185Z,39.27
2023-01-28T17:39:01.571Z,31.95
2023-01-28T17:44:27.478Z,32.40
2023-01-28T17:49:49.820Z,32.73
2023-01-28T17:55:14.815Z,31.55
2023-01-28T18:00:39.592Z,31.82
2023-01-28T18:06:10.932Z,29.02
2023-01-28T18:11:36.189Z,32.08
2023-01-28T18:16:59.145Z,34.07
2023-01-28T18:22:23.493Z,30.40
2023-01-28T18:27:45.929Z,28.62
2023-01-28T18:33:08.487Z,30.13
2023-01-28T18:38:30.946Z,27.45
2023-01-28T18:43:54.292Z,26.82
2023-01-28T18:49:17.654Z,24.80
2023-01-28T18:54:40.083Z,26.68
2023-01-28T19:00:02.690Z,26.93
2023-01-28T19:05:25.291Z,22.95
2023-01-28T19:10:48.848Z,25.57
2023-01-28T19:16:12.991Z,24.33
2023-01-28T19:21:36.538Z,26.47
2023-01-28T19:26:59.460Z,27.15
2023-01-28T19:32:21.773Z,23.50
2023-01-28T19:37:47.080Z,26.87
2023-01-28T19:43:11.420Z,31.02
2023-01-28T19:48:34.379Z,32.03
2023-01-28T19:53:58.439Z,31.12
2023-01-28T19:59:20.848Z,34.88
2023-01-28T20:04:59.593Z,30.55
2023-01-28T20:10:07.348Z,34.65
2023-01-28T20:15:30.142Z,33.13
2023-01-28T20:20:54.360Z,30.60
2023-01-28T20:26:17.441Z,34.13
2023-01-28T20:31:40.163Z,34.88
2023-01-28T20:37:04.292Z,36.53
2023-01-28T20:42:27.304Z,42.48
2023-01-28T20:47:49.480Z,40.20
2023-01-28T20:53:12.581Z,39.37
2023-01-28T20:58:34.876Z,37.85
2023-01-28T21:03:57.169Z,37.90
2023-01-28T21:09:19.610Z,39.33
2023-01-28T21:14:42.419Z,36.58
2023-01-28T21:20:05.463Z,39.60
2023-01-28T21:25:28.822Z,36.33
2023-01-28T21:30:51.963Z,38.20
2023-01-28T21:36:16.584Z,34.92
2023-01-28T21:41:38.996Z,39.73
2023-01-28T21:47:01.300Z,32.20
2023-01-28T21:52:25.433Z,37.23
2023-01-28T21:57:47.812Z,35.73
2023-01-28T22:03:11.456Z,36.40
2023-01-28T22:08:33.919Z,34.73
2023-01-28T22:13:56.180Z,32.17
2023-01-28T22:19:18.996Z,32.95
2023-01-28T22:24:42.369Z,36.05
2023-01-28T22:30:05.390Z,35.13
2023-01-28T22:35:27.741Z,32.37
2023-01-28T22:40:51.519Z,27.32
2023-01-28T22:46:18.322Z,28.80
2023-01-28T22:51:44.120Z,30.20
2023-01-28T22:57:06.376Z,31.77
2023-01-28T23:02:29.000Z,28.30
2023-01-28T23:07:51.437Z,34.10
2023-01-28T23:13:15.398Z,31.52
2023-01-28T23:18:57.012Z,31.40
2023-01-28T23:24:23.167Z,32.03
2023-01-28T23:29:47.195Z,31.67
2023-01-28T23:35:09.507Z,35.45
2023-01-28T23:40:33.349Z,26.12
2023-01-28T23:45:55.714Z,26.57
2023-01-28T23:51:18.201Z,22.85
2023-01-28T23:56:40.998Z,24.70
